Time;durP1;ratioP1;P1;durP2;ratioP2;P2;SDS_P1;SDS_P2;PMS_P1;PMS_P2;Temp;Humidity;BMP_temperature;BMP_pressure;BME280_temperature;BME280_humidity;BME280_pressure;Samples;Min_cycle;Max_cycle;Signal;HPM_P1;HPM_P2
2022/12/11 00:02:03;;;;;;;0.70;0.70;;;4.80;99.90;;;;;;5095238;28;20552;-80
2022/12/11 00:04:30;;;;;;;0.80;0.80;;;4.80;99.90;;;;;;5097615;28;20182;-78
2022/12/11 00:06:56;;;;;;;0.80;0.80;;;4.80;99.90;;;;;;5097287;28;20174;-79
2022/12/11 00:09:22;;;;;;;0.77;0.77;;;4.80;99.90;;;;;;5097813;28;20266;-81
2022/12/11 00:11:48;;;;;;;0.83;0.83;;;4.80;99.90;;;;;;5097013;28;20205;-78
2022/12/11 00:14:15;;;;;;;0.80;0.80;;;4.80;99.90;;;;;;5095101;28;20177;-80
2022/12/11 00:16:41;;;;;;;1.20;1.20;;;4.80;99.90;;;;;;5100476;28;20171;-80
2022/12/11 00:19:06;;;;;;;1.10;1.10;;;4.80;99.90;;;;;;5096861;28;20610;-82
2022/12/11 00:21:33;;;;;;;0.90;0.90;;;4.80;99.90;;;;;;5101054;28;20274;-82
2022/12/11 00:23:59;;;;;;;0.80;0.80;;;4.80;99.90;;;;;;5098483;28;20222;-81
2022/12/11 00:26:25;;;;;;;0.90;0.90;;;4.80;99.90;;;;;;5095571;28;20190;-80
2022/12/11 00:28:54;;;;;;;0.90;0.90;;;4.80;99.90;;;;;;5095448;28;20687;-81
2022/12/11 00:31:23;;;;;;;2.00;1.20;;;4.80;99.90;;;;;;5094988;28;20167;-79
2022/12/11 00:33:50;;;;;;;0.83;0.83;;;4.80;99.90;;;;;;5095291;28;20529;-81
2022/12/11 00:36:19;;;;;;;1.20;1.10;;;4.90;99.90;;;;;;5095286;28;20213;-80
2022/12/11 00:38:45;;;;;;;1.10;1.10;;;4.90;99.90;;;;;;5101624;28;20529;-80
2022/12/11 00:41:11;;;;;;;1.00;1.00;;;4.80;99.90;;;;;;5095943;28;20171;-80
2022/12/11 00:43:39;;;;;;;0.90;0.90;;;4.80;99.90;;;;;;5094776;28;20534;-79
2022/12/11 00:46:05;;;;;;;0.80;0.80;;;4.80;99.90;;;;;;5094743;28;20173;-81
2022/12/11 00:48:31;;;;;;;0.97;0.97;;;4.90;99.90;;;;;;5093005;28;20178;-80
2022/12/11 00:50:57;;;;;;;1.00;0.90;;;4.90;99.90;;;;;;5094831;28;20171;-83
2022/12/11 00:53:23;;;;;;;0.80;0.80;;;4.90;99.90;;;;;;5094930;28;20174;-78
2022/12/11 00:55:49;;;;;;;0.90;0.90;;;4.80;99.90;;;;;;5094540;28;20166;-79
2022/12/11 00:58:15;;;;;;;0.80;0.80;;;4.90;99.90;;;;;;5094330;28;20511;-79
2022/12/11 01:00:42;;;;;;;0.77;0.77;;;4.90;99.90;;;;;;5094139;28;20266;-79
2022/12/11 01:03:09;;;;;;;1.00;1.00;;;4.80;99.90;;;;;;5092832;28;20210;-77
2022/12/11 01:05:35;;;;;;;0.90;0.90;;;4.90;99.90;;;;;;5094372;28;20222;-81
2022/12/11 01:08:02;;;;;;;1.00;1.00;;;4.90;99.90;;;;;;5094327;28;20175;-83
2022/12/11 01:10:31;;;;;;;0.90;0.90;;;4.90;99.90;;;;;;5094295;28;20166;-78
2022/12/11 01:13:04;;;;;;;0.57;0.57;;;4.80;99.90;;;;;;5094312;28;20168;-79
2022/12/11 01:15:38;;;;;;;0.80;0.80;;;4.80;99.90;;;;;;5093992;28;20254;-81
2022/12/11 01:18:04;;;;;;;0.90;0.90;;;4.80;99.90;;;;;;5095662;28;20150;-81
2022/12/11 01:20:30;;;;;;;1.10;1.10;;;4.80;99.90;;;;;;5095485;28;20170;-80
2022/12/11 01:22:58;;;;;;;0.77;0.77;;;4.90;99.90;;;;;;5094007;28;20564;-81
2022/12/11 01:25:26;;;;;;;0.97;0.97;;;4.80;99.90;;;;;;5094146;28;20220;-83
2022/12/11 01:27:54;;;;;;;1.00;1.00;;;4.90;99.90;;;;;;5093951;28;20170;-82
2022/12/11 01:30:22;;;;;;;1.67;0.73;;;4.90;99.90;;;;;;5097121;28;20178;-84
2022/12/11 01:32:48;;;;;;;0.93;0.93;;;4.90;99.90;;;;;;5094000;28;20232;-82
2022/12/11 01:35:15;;;;;;;1.03;1.03;;;;;;;;;;5093982;28;20248;-81
2022/12/11 01:37:41;;;;;;;0.77;0.77;;;4.80;99.90;;;;;;5093707;28;20163;-81
2022/12/11 01:40:08;;;;;;;0.90;0.90;;;4.90;99.90;;;;;;5092926;28;20290;-83
2022/12/11 01:42:34;;;;;;;1.07;1.07;;;4.90;99.90;;;;;;5093763;28;20206;-82
2022/12/11 01:45:37;;;;;;;1.00;1.00;;;4.90;99.90;;;;;;5093269;28;20174;-77
2022/12/11 01:48:25;;;;;;;1.00;1.00;;;4.90;99.90;;;;;;5093556;28;20622;-79
2022/12/11 01:51:04;;;;;;;0.80;0.80;;;4.90;99.90;;;;;;5093656;28;20198;-81
2022/12/11 01:53:42;;;;;;;0.60;0.60;;;4.90;99.90;;;;;;5094862;28;20176;-82
2022/12/11 01:56:09;;;;;;;0.87;0.87;;;4.90;99.90;;;;;;5094081;28;20208;-82
2022/12/11 01:58:43;;;;;;;0.70;0.70;;;4.90;99.90;;;;;;5095756;28;20221;-82
2022/12/11 02:01:13;;;;;;;0.80;0.80;;;4.90;99.90;;;;;;5099318;28;20220;-82
2022/12/11 02:03:39;;;;;;;0.90;0.90;;;4.90;99.90;;;;;;5095328;28;20220;-80
2022/12/11 02:06:05;;;;;;;1.00;1.00;;;4.90;99.90;;;;;;5093484;28;20585;-81
2022/12/11 02:08:31;;;;;;;0.80;0.80;;;4.90;99.90;;;;;;5093287;28;20178;-78
2022/12/11 02:11:15;;;;;;;1.00;1.00;;;4.90;99.90;;;;;;5093049;28;20159;-79
2022/12/11 02:13:44;;;;;;;0.90;0.90;;;4.90;99.90;;;;;;5092366;28;20182;-79
2022/12/11 02:16:33;;;;;;;1.53;0.93;;;4.90;99.90;;;;;;5093483;28;20173;-81
2022/12/11 02:19:17;;;;;;;0.70;0.70;;;5.00;99.90;;;;;;5093180;28;20162;-84
2022/12/11 02:21:52;;;;;;;0.70;0.70;;;5.00;99.90;;;;;;5093204;28;20163;-81
2022/12/11 02:24:45;;;;;;;0.73;0.73;;;5.00;99.90;;;;;;5093252;28;20223;-82
2022/12/11 02:27:14;;;;;;;0.80;0.80;;;5.00;99.90;;;;;;5093169;28;20155;-82
2022/12/11 02:30:06;;;;;;;0.97;0.93;;;4.90;99.90;;;;;;5093241;28;20224;-80
2022/12/11 02:32:45;;;;;;;0.70;0.70;;;5.00;99.90;;;;;;5093241;28;20178;-83
2022/12/11 02:35:29;;;;;;;1.00;1.00;;;5.00;99.90;;;;;;5092752;28;20161;-82
2022/12/11 02:38:30;;;;;;;0.67;0.67;;;5.00;99.90;;;;;;5093298;28;20644;-80
2022/12/11 02:40:59;;;;;;;0.60;0.60;;;5.00;99.90;;;;;;5031833;28;20193;-80
2022/12/11 02:43:26;;;;;;;0.90;0.90;;;5.00;99.90;;;;;;5032967;28;20225;-80
2022/12/11 02:45:52;;;;;;;0.80;0.80;;;5.00;99.90;;;;;;5031354;28;20189;-79
2022/12/11 02:48:20;;;;;;;0.80;0.80;;;5.10;99.90;;;;;;5030287;28;20199;-83
2022/12/11 02:50:50;;;;;;;0.43;0.43;;;5.00;99.90;;;;;;5030600;28;20191;-81
2022/12/11 02:53:20;;;;;;;0.83;0.83;;;5.00;99.90;;;;;;5034204;28;20246;-82
2022/12/11 02:55:51;;;;;;;0.60;0.60;;;5.00;99.90;;;;;;5037755;28;20164;-83
2022/12/11 02:58:24;;;;;;;0.53;0.53;;;4.90;99.90;;;;;;5034382;28;20177;-82
2022/12/11 03:00:50;;;;;;;0.40;0.40;;;4.90;99.90;;;;;;5034130;28;20235;-82
2022/12/11 03:03:18;;;;;;;0.73;0.73;;;4.90;99.90;;;;;;5034275;28;20270;-81
2022/12/11 03:05:45;;;;;;;0.70;0.70;;;4.90;99.90;;;;;;5034144;28;20191;-82
2022/12/11 03:08:11;;;;;;;0.73;0.73;;;4.90;99.90;;;;;;5034144;28;20184;-84
2022/12/11 03:10:37;;;;;;;0.77;0.77;;;4.90;99.90;;;;;;5017602;28;20568;-83
2022/12/11 03:13:04;;;;;;;0.77;0.77;;;4.90;99.90;;;;;;5034212;28;20209;-82
2022/12/11 03:16:18;;;;;;;0.77;0.70;;;4.90;99.90;;;;;;5040548;28;20173;-83
2022/12/11 03:18:44;;;;;;;0.80;0.80;;;4.80;99.90;;;;;;5034072;28;20303;-83
2022/12/11 03:21:39;;;;;;;0.73;0.73;;;4.70;99.90;;;;;;5033987;28;20270;-81
2022/12/11 03:24:18;;;;;;;0.50;0.50;;;4.60;99.90;;;;;;5021153;28;20270;-84
2022/12/11 03:26:54;;;;;;;0.87;0.83;;;4.60;99.90;;;;;;5034070;28;20181;-79
2022/12/11 03:29:30;;;;;;;0.80;0.80;;;4.50;99.90;;;;;;5033729;28;20178;-77
2022/12/11 03:32:00;;;;;;;0.63;0.63;;;4.50;99.90;;;;;;5033715;28;20663;-79
2022/12/11 03:34:42;;;;;;;1.07;0.87;;;4.40;99.90;;;;;;5033531;28;20252;-83
2022/12/11 03:37:09;;;;;;;0.77;0.77;;;4.40;99.90;;;;;;5017405;28;20201;-80
2022/12/11 03:39:40;;;;;;;0.60;0.60;;;4.30;99.90;;;;;;5037256;28;20208;-82
2022/12/11 03:42:10;;;;;;;0.63;0.63;;;4.20;99.90;;;;;;5040876;28;20169;-79
2022/12/11 03:44:37;;;;;;;0.70;0.70;;;4.20;99.90;;;;;;5033335;28;20258;-82
2022/12/11 03:47:06;;;;;;;0.60;0.60;;;4.10;99.90;;;;;;5033497;28;20184;-83
2022/12/11 03:49:40;;;;;;;1.00;1.00;;;4.00;99.90;;;;;;5033728;28;20739;-79
2022/12/11 03:52:09;;;;;;;0.80;0.80;;;3.90;99.90;;;;;;5050828;28;20717;-79
2022/12/11 03:54:36;;;;;;;1.03;1.03;;;3.90;99.90;;;;;;5096443;28;20182;-79
2022/12/11 03:57:04;;;;;;;0.70;0.70;;;3.90;99.90;;;;;;5095469;28;20232;-79
2022/12/11 03:59:30;;;;;;;0.90;0.90;;;3.80;99.90;;;;;;5094093;28;20174;-79
2022/12/11 04:01:56;;;;;;;1.00;1.00;;;3.90;99.90;;;;;;5094605;28;20234;-79
2022/12/11 04:04:22;;;;;;;0.60;0.60;;;3.90;99.90;;;;;;5094899;28;20623;-81
2022/12/11 04:06:48;;;;;;;0.87;0.87;;;3.90;99.90;;;;;;5095322;28;20309;-79
2022/12/11 04:09:14;;;;;;;0.80;0.80;;;3.90;99.90;;;;;;5095483;28;20176;-83
2022/12/11 04:11:41;;;;;;;0.67;0.67;;;3.90;99.90;;;;;;5094230;28;20202;-80
2022/12/11 04:16:58;;;;;;;0.77;0.77;;;3.90;99.90;;;;;;5096122;28;20540;-81
2022/12/11 04:24:57;;;;;;;0.97;0.97;;;3.90;99.90;;;;;;5095185;28;20197;-82
2022/12/11 04:30:12;;;;;;;0.87;0.87;;;3.90;99.90;;;;;;5095384;28;20178;-81
2022/12/11 04:32:38;;;;;;;1.07;1.07;;;3.90;99.90;;;;;;5095917;28;20172;-83
2022/12/11 04:35:06;;;;;;;0.97;0.97;;;3.90;99.90;;;;;;5094997;28;20176;-79
2022/12/11 04:37:32;;;;;;;0.90;0.90;;;3.90;99.90;;;;;;5094906;28;20181;-81
2022/12/11 04:39:58;;;;;;;0.90;0.90;;;3.90;99.90;;;;;;5094787;28;20538;-82
2022/12/11 04:42:24;;;;;;;1.00;1.00;;;3.90;99.90;;;;;;5093479;28;20186;-82
2022/12/11 04:44:49;;;;;;;1.10;1.10;;;3.90;99.90;;;;;;5094957;28;20245;-84
2022/12/11 04:47:15;;;;;;;1.23;1.00;;;4.00;99.90;;;;;;5094578;28;20652;-83
2022/12/11 04:49:42;;;;;;;1.30;1.30;;;4.00;99.90;;;;;;5094637;28;20181;-84
2022/12/11 04:52:11;;;;;;;1.10;1.10;;;4.00;99.90;;;;;;5095705;28;20183;-84
2022/12/11 04:54:36;;;;;;;1.20;1.20;;;4.00;99.90;;;;;;5094951;28;20166;-84
2022/12/11 04:57:03;;;;;;;1.13;1.13;;;4.10;99.90;;;;;;5094478;28;20653;-84
2022/12/11 04:59:30;;;;;;;1.00;1.00;;;4.00;99.90;;;;;;5093086;28;20173;-83
2022/12/11 05:01:56;;;;;;;1.20;1.20;;;4.10;99.90;;;;;;5094337;28;20221;-84
2022/12/11 05:04:22;;;;;;;1.00;1.00;;;4.10;99.90;;;;;;5094451;28;20197;-83
2022/12/11 05:06:49;;;;;;;1.13;1.13;;;4.20;99.90;;;;;;5095713;28;20172;-83
2022/12/11 05:09:15;;;;;;;1.30;1.30;;;4.20;99.80;;;;;;5096270;28;20262;-83
2022/12/11 05:11:41;;;;;;;1.30;1.30;;;4.20;99.40;;;;;;5094380;28;20202;-80
2022/12/11 05:14:07;;;;;;;1.20;1.20;;;4.20;99.40;;;;;;5093987;28;20537;-78
2022/12/11 05:16:33;;;;;;;1.10;1.10;;;4.30;99.00;;;;;;5094296;28;20217;-79
2022/12/11 05:18:58;;;;;;;1.30;1.30;;;4.30;98.90;;;;;;5096124;28;20207;-80
2022/12/11 05:21:24;;;;;;;1.20;1.20;;;4.30;99.10;;;;;;5100307;28;20606;-80
2022/12/11 05:23:50;;;;;;;0.97;0.97;;;4.30;98.60;;;;;;5097661;28;20212;-81
2022/12/11 05:26:19;;;;;;;1.00;1.00;;;4.40;98.50;;;;;;5092966;28;20634;-81
2022/12/11 05:28:49;;;;;;;1.03;1.03;;;4.30;98.40;;;;;;5093985;28;20756;-81
2022/12/11 05:31:20;;;;;;;1.33;1.33;;;4.30;98.50;;;;;;5093764;28;20166;-81
2022/12/11 05:33:47;;;;;;;1.13;1.13;;;4.40;98.00;;;;;;5094062;28;20167;-82
2022/12/11 05:36:23;;;;;;;1.00;1.00;;;4.30;98.30;;;;;;5095489;28;20167;-82
2022/12/11 05:38:50;;;;;;;1.40;1.40;;;4.30;98.40;;;;;;5095941;28;20220;-80
2022/12/11 05:41:19;;;;;;;0.93;0.93;;;4.40;98.20;;;;;;5096578;28;20175;-82
2022/12/11 05:43:45;;;;;;;1.10;1.10;;;4.40;98.10;;;;;;5096754;28;20229;-81
2022/12/11 05:46:16;;;;;;;0.90;0.90;;;4.40;98.00;;;;;;5094561;28;20586;-82
2022/12/11 05:48:46;;;;;;;1.00;1.00;;;4.40;97.90;;;;;;5093842;28;20172;-82
2022/12/11 05:51:13;;;;;;;1.13;1.13;;;4.40;98.00;;;;;;5093780;28;20563;-82
2022/12/11 05:53:40;;;;;;;1.10;1.10;;;4.40;97.50;;;;;;5093386;28;20163;-81
2022/12/11 05:56:11;;;;;;;1.10;1.10;;;4.40;97.90;;;;;;5093399;28;20179;-81
2022/12/11 05:58:39;;;;;;;1.03;1.00;;;4.50;97.70;;;;;;5093205;28;20583;-81
2022/12/11 06:01:18;;;;;;;1.03;0.80;;;4.50;97.40;;;;;;5092828;28;20229;-82
2022/12/11 06:03:44;;;;;;;1.00;1.00;;;4.50;97.10;;;;;;5093107;28;20202;-78
2022/12/11 06:06:10;;;;;;;1.10;1.10;;;4.40;97.40;;;;;;5093261;28;20227;-80
2022/12/11 06:08:35;;;;;;;0.97;0.97;;;4.50;97.70;;;;;;5095220;28;20181;-80
2022/12/11 06:11:02;;;;;;;0.90;0.90;;;4.50;97.30;;;;;;5093252;28;20179;-83
2022/12/11 06:13:28;;;;;;;0.80;0.80;;;4.50;97.10;;;;;;5093104;28;20178;-79
2022/12/11 06:15:54;;;;;;;1.00;1.00;;;4.40;97.10;;;;;;5093127;28;20170;-80
2022/12/11 06:18:20;;;;;;;1.10;1.10;;;4.40;97.20;;;;;;5093693;28;20235;-81
2022/12/11 06:20:46;;;;;;;1.13;1.13;;;4.40;97.40;;;;;;5096063;28;20173;-78
2022/12/11 06:23:12;;;;;;;1.03;1.03;;;4.40;97.40;;;;;;5093148;28;20216;-79
2022/12/11 06:25:38;;;;;;;1.00;1.00;;;4.40;97.30;;;;;;5092390;28;20241;-82
2022/12/11 06:28:04;;;;;;;1.10;1.10;;;4.40;97.00;;;;;;5093722;28;20215;-80
2022/12/11 06:30:30;;;;;;;0.90;0.90;;;4.40;97.10;;;;;;5096500;28;20204;-82
2022/12/11 06:32:58;;;;;;;1.17;1.17;;;4.40;97.20;;;;;;5094402;28;20503;-82
2022/12/11 06:35:24;;;;;;;1.30;1.30;;;4.40;97.00;;;;;;5091392;28;20189;-83
2022/12/11 06:37:50;;;;;;;4.00;1.30;;;4.40;97.10;;;;;;5093006;28;20185;-82
2022/12/11 06:40:16;;;;;;;2.77;1.53;;;4.40;97.00;;;;;;5092783;28;20172;-82
2022/12/11 06:42:41;;;;;;;0.90;0.90;;;4.40;97.20;;;;;;5092817;28;20195;-82
2022/12/11 06:45:08;;;;;;;1.00;1.00;;;4.40;97.10;;;;;;5093499;28;20166;-83
2022/12/11 06:47:35;;;;;;;1.10;1.10;;;4.40;96.90;;;;;;5092871;28;20203;-82
2022/12/11 06:50:01;;;;;;;1.00;1.00;;;4.40;97.50;;;;;;5092960;28;20178;-83
2022/12/11 06:52:27;;;;;;;1.30;1.30;;;4.40;97.20;;;;;;5093202;28;20178;-83
2022/12/11 06:54:53;;;;;;;1.30;1.30;;;4.30;97.10;;;;;;5092811;28;20224;-81
2022/12/11 06:57:19;;;;;;;1.10;1.10;;;4.30;96.90;;;;;;5095319;28;20175;-78
2022/12/11 06:59:45;;;;;;;1.27;1.27;;;4.40;96.50;;;;;;5097284;28;20216;-79
2022/12/11 07:02:13;;;;;;;1.27;1.27;;;4.30;96.70;;;;;;5094908;28;20319;-79
2022/12/11 07:04:42;;;;;;;0.90;0.90;;;4.40;96.70;;;;;;5093647;28;20177;-77
2022/12/11 07:07:08;;;;;;;1.30;1.30;;;4.30;96.60;;;;;;5091373;28;20244;-78
2022/12/11 07:09:36;;;;;;;1.10;1.10;;;4.30;96.30;;;;;;5092766;28;20509;-79
2022/12/11 07:12:02;;;;;;;1.10;1.10;;;4.30;96.00;;;;;;5093044;28;20646;-78
2022/12/11 07:14:29;;;;;;;1.00;1.00;;;4.30;96.40;;;;;;5092476;28;20202;-78
2022/12/11 07:16:56;;;;;;;1.10;1.10;;;4.30;96.50;;;;;;5092387;28;20175;-83
2022/12/11 07:19:22;;;;;;;1.20;1.20;;;4.30;96.20;;;;;;5093113;28;20188;-80
2022/12/11 07:21:48;;;;;;;1.40;1.40;;;4.30;96.00;;;;;;5093068;28;20180;-82
2022/12/11 07:24:13;;;;;;;1.23;1.23;;;4.30;96.00;;;;;;5092271;28;20211;-82
2022/12/11 07:26:39;;;;;;;1.80;1.70;;;4.40;96.00;;;;;;5093755;28;20175;-81
2022/12/11 07:29:05;;;;;;;1.60;1.50;;;4.30;95.70;;;;;;5093600;28;20188;-82
2022/12/11 07:31:31;;;;;;;1.50;1.40;;;4.30;96.10;;;;;;5095215;28;20185;-81
2022/12/11 07:33:59;;;;;;;1.57;1.50;;;4.30;96.20;;;;;;5093521;28;20187;-81
2022/12/11 07:36:26;;;;;;;1.53;1.50;;;4.40;95.50;;;;;;5090930;28;20266;-82
2022/12/11 07:38:52;;;;;;;1.67;1.57;;;4.30;95.20;;;;;;5087869;28;20183;-79
2022/12/11 07:41:19;;;;;;;1.30;1.30;;;4.30;94.90;;;;;;5095787;28;20198;-79
2022/12/11 07:43:45;;;;;;;1.53;1.43;;;4.30;95.10;;;;;;5098258;28;20268;-81
2022/12/11 07:46:16;;;;;;;1.60;1.60;;;4.30;94.90;;;;;;5097944;28;20619;-80
2022/12/11 07:48:44;;;;;;;2.00;1.90;;;4.30;95.00;;;;;;5095571;28;20164;-80
2022/12/11 07:51:18;;;;;;;2.00;1.90;;;4.40;95.00;;;;;;5096020;28;20680;-80
2022/12/11 07:53:45;;;;;;;2.00;1.80;;;4.40;95.20;;;;;;5094460;28;20183;-82
2022/12/11 07:56:11;;;;;;;2.03;1.90;;;4.40;94.70;;;;;;5095749;28;20658;-80
2022/12/11 07:58:37;;;;;;;1.90;1.80;;;4.40;94.30;;;;;;5095305;28;20182;-82
2022/12/11 08:01:12;;;;;;;1.90;1.80;;;4.30;94.00;;;;;;5095179;28;20236;-81
2022/12/11 08:03:38;;;;;;;2.20;2.00;;;4.30;94.20;;;;;;5095314;28;20201;-77
2022/12/11 08:06:04;;;;;;;1.90;1.80;;;4.40;94.70;;;;;;5095169;28;20174;-81
2022/12/11 08:08:30;;;;;;;2.27;2.10;;;4.40;94.40;;;;;;5094950;28;20168;-80
2022/12/11 08:11:03;;;;;;;2.30;2.10;;;4.50;94.30;;;;;;5094878;28;20171;-82
2022/12/11 08:13:29;;;;;;;2.30;2.10;;;4.50;93.90;;;;;;5095281;28;20165;-80
2022/12/11 08:15:55;;;;;;;1.70;1.60;;;4.50;93.90;;;;;;5094899;28;20178;-81
2022/12/11 08:18:21;;;;;;;1.80;1.70;;;4.50;93.90;;;;;;5094803;28;20171;-81
2022/12/11 08:20:47;;;;;;;2.00;1.90;;;4.50;93.80;;;;;;5094873;28;20163;-80
2022/12/11 08:23:12;;;;;;;1.90;1.80;;;4.60;93.60;;;;;;5097246;28;20298;-81
2022/12/11 08:25:38;;;;;;;2.20;2.00;;;4.50;93.40;;;;;;5095307;28;20177;-82
2022/12/11 08:28:04;;;;;;;1.90;1.80;;;4.50;93.70;;;;;;5095396;28;20657;-81
2022/12/11 08:30:31;;;;;;;2.70;2.50;;;4.60;93.20;;;;;;5094935;28;20186;-83
2022/12/11 08:32:58;;;;;;;2.17;2.07;;;4.50;93.70;;;;;;5095535;28;20223;-83
2022/12/11 08:35:24;;;;;;;2.73;2.10;;;4.60;93.90;;;;;;5096054;28;20177;-84
2022/12/11 08:37:50;;;;;;;1.73;1.63;;;4.60;93.20;;;;;;5097255;28;20178;-84
2022/12/11 08:40:16;;;;;;;1.70;1.60;;;4.50;93.30;;;;;;5099310;28;20181;-81
2022/12/11 08:42:42;;;;;;;1.60;1.50;;;4.50;93.30;;;;;;5095203;28;20207;-78
2022/12/11 08:45:08;;;;;;;2.33;1.90;;;4.60;93.60;;;;;;5096358;28;20690;-81
2022/12/11 08:47:34;;;;;;;1.80;1.70;;;4.70;93.80;;;;;;5096119;28;20193;-81
2022/12/11 08:50:01;;;;;;;1.93;1.83;;;4.70;93.20;;;;;;5094179;28;20178;-81
2022/12/11 08:52:26;;;;;;;2.00;1.90;;;4.80;93.40;;;;;;5094252;28;20166;-78
2022/12/11 08:54:52;;;;;;;1.93;1.80;;;4.80;93.10;;;;;;5094333;28;20192;-78
2022/12/11 08:57:18;;;;;;;1.80;1.70;;;4.80;93.60;;;;;;5094428;28;20166;-81
2022/12/11 08:59:44;;;;;;;1.23;1.23;;;4.90;94.00;;;;;;5094365;28;20237;-79
2022/12/11 09:02:11;;;;;;;2.00;1.87;;;4.80;93.20;;;;;;5093993;28;20548;-82
2022/12/11 09:04:37;;;;;;;1.67;1.67;;;4.80;93.50;;;;;;5094123;28;20198;-80
2022/12/11 09:07:03;;;;;;;1.73;1.63;;;4.90;93.40;;;;;;5092817;28;20175;-82
2022/12/11 09:09:29;;;;;;;1.37;1.37;;;4.90;93.60;;;;;;5094673;28;20539;-81
2022/12/11 09:11:55;;;;;;;1.50;1.50;;;4.90;93.30;;;;;;5094949;28;20677;-81
2022/12/11 09:14:21;;;;;;;2.00;1.50;;;4.70;92.90;;;;;;5094841;28;20183;-80
2022/12/11 09:16:47;;;;;;;1.47;1.37;;;4.70;92.90;;;;;;5094536;28;20182;-80
2022/12/11 09:19:14;;;;;;;1.73;1.63;;;4.70;93.10;;;;;;5096932;28;20169;-79
2022/12/11 09:21:41;;;;;;;2.00;1.90;;;4.70;93.00;;;;;;5096632;28;20208;-78
2022/12/11 09:24:09;;;;;;;1.73;1.63;;;4.80;93.20;;;;;;5094196;28;20210;-82
2022/12/11 09:26:35;;;;;;;1.53;1.43;;;4.80;93.30;;;;;;5094871;28;20412;-79
2022/12/11 09:29:02;;;;;;;2.13;1.93;;;4.80;93.10;;;;;;5094859;28;20202;-78
2022/12/11 09:31:31;;;;;;;1.60;1.50;;;4.90;93.30;;;;;;5094719;28;20248;-80
2022/12/11 09:34:00;;;;;;;2.17;1.57;;;4.90;93.00;;;;;;5093702;28;20172;-78
2022/12/11 09:36:27;;;;;;;1.77;1.67;;;4.90;93.00;;;;;;5093593;28;20242;-81
2022/12/11 09:38:53;;;;;;;1.80;1.70;;;5.00;92.90;;;;;;5094170;28;20571;-82
2022/12/11 09:41:22;;;;;;;1.60;1.60;;;5.00;92.90;;;;;;5094064;28;20198;-80
2022/12/11 09:44:10;;;;;;;1.70;1.60;;;5.10;93.10;;;;;;5093533;28;20208;-81
2022/12/11 09:46:37;;;;;;;1.70;1.60;;;5.00;92.30;;;;;;5093744;28;20535;-81
2022/12/11 09:49:10;;;;;;;1.90;1.70;;;5.00;92.30;;;;;;5093857;28;20173;-83
2022/12/11 09:51:45;;;;;;;1.60;1.50;;;5.00;92.70;;;;;;5094061;28;20172;-81
2022/12/11 09:54:12;;;;;;;1.93;1.80;;;5.00;92.50;;;;;;5094169;28;20621;-81
2022/12/11 09:56:43;;;;;;;1.63;1.60;;;5.10;92.50;;;;;;5094961;28;20529;-81
2022/12/11 09:59:21;;;;;;;2.13;1.70;;;5.10;92.50;;;;;;5094647;28;20171;-80
2022/12/11 10:02:00;;;;;;;1.33;1.33;;;5.00;92.10;;;;;;5092218;28;20229;-81
2022/12/11 10:04:47;;;;;;;2.00;1.90;;;4.90;92.00;;;;;;5093043;28;20700;-83
2022/12/11 10:07:45;;;;;;;1.63;1.53;;;4.80;91.90;;;;;;5093349;28;20182;-81
2022/12/11 10:10:26;;;;;;;1.67;1.57;;;4.80;91.60;;;;;;5087693;28;20582;-79
2022/12/11 10:13:07;;;;;;;2.00;1.90;;;4.80;91.90;;;;;;5093206;28;20162;-80
2022/12/11 10:15:56;;;;;;;1.13;1.13;;;4.70;90.70;;;;;;5093242;28;20159;-80
2022/12/11 10:18:25;;;;;;;1.67;1.60;;;4.60;90.90;;;;;;5095113;28;20204;-82
2022/12/11 10:20:55;;;;;;;1.77;1.67;;;4.60;91.10;;;;;;5093594;28;20182;-80
2022/12/11 10:23:28;;;;;;;1.60;1.60;;;4.50;90.40;;;;;;5093232;28;20255;-83
2022/12/11 10:26:04;;;;;;;1.67;1.57;;;4.50;90.70;;;;;;5093839;28;20246;-84
2022/12/11 10:28:30;;;;;;;2.00;1.60;;;4.60;90.90;;;;;;5093555;28;20243;-83
2022/12/11 10:31:18;;;;;;;1.70;1.60;;;4.60;90.90;;;;;;5097328;28;20262;-81
2022/12/11 10:34:01;;;;;;;1.70;1.70;;;4.60;90.90;;;;;;5094359;28;20211;-78
2022/12/11 10:36:30;;;;;;;1.67;1.57;;;4.60;90.80;;;;;;5093024;28;20182;-79
2022/12/11 10:38:56;;;;;;;1.83;1.73;;;4.60;90.80;;;;;;5092590;28;20178;-79
2022/12/11 10:41:49;;;;;;;1.90;1.80;;;4.70;90.40;;;;;;5092958;28;20667;-81
2022/12/11 10:44:20;;;;;;;1.70;1.60;;;4.70;90.60;;;;;;5089994;28;20229;-78
2022/12/11 10:46:47;;;;;;;1.90;1.80;;;4.70;90.20;;;;;;5092570;28;20178;-78
2022/12/11 10:49:25;;;;;;;1.70;1.60;;;4.70;90.50;;;;;;5092541;28;20162;-79
2022/12/11 10:51:53;;;;;;;1.67;1.57;;;4.70;90.80;;;;;;5092770;28;20627;-78
2022/12/11 10:54:42;;;;;;;1.97;1.87;;;4.70;90.70;;;;;;5092679;28;20167;-82
2022/12/11 10:57:12;;;;;;;2.20;2.00;;;4.70;90.30;;;;;;5094401;28;20537;-81
2022/12/11 10:59:45;;;;;;;1.90;1.80;;;4.80;90.40;;;;;;5094658;28;20220;-82
2022/12/11 11:02:35;;;;;;;2.03;1.93;;;4.70;90.60;;;;;;5093003;28;20570;-80
2022/12/11 11:05:12;;;;;;;1.80;1.70;;;4.90;90.50;;;;;;5084937;28;20553;-82
2022/12/11 11:07:38;;;;;;;1.97;1.87;;;4.90;90.20;;;;;;5092765;28;20161;-82
2022/12/11 11:10:10;;;;;;;2.20;1.90;;;4.90;90.10;;;;;;5094408;28;20249;-80
2022/12/11 11:12:48;;;;;;;1.53;1.53;;;4.90;90.00;;;;;;5097466;28;20175;-83
2022/12/11 11:15:26;;;;;;;1.87;1.77;;;4.90;89.50;;;;;;5097563;28;20239;-83
2022/12/11 11:17:55;;;;;;;2.03;1.93;;;4.80;90.00;;;;;;5098288;28;20187;-80
2022/12/11 11:20:28;;;;;;;1.80;1.70;;;4.80;89.20;;;;;;5100677;28;20204;-81
2022/12/11 11:23:03;;;;;;;1.90;1.80;;;4.70;89.20;;;;;;5101105;28;20248;-81
2022/12/11 11:25:31;;;;;;;1.70;1.70;;;4.60;89.80;;;;;;5096196;28;20208;-81
2022/12/11 11:28:05;;;;;;;2.03;1.93;;;4.70;90.00;;;;;;5096269;28;20167;-82
2022/12/11 11:30:41;;;;;;;2.50;2.30;;;4.80;89.50;;;;;;5096233;28;20166;-82
2022/12/11 11:33:18;;;;;;;2.20;2.10;;;4.80;89.40;;;;;;5096499;28;20269;-82
2022/12/11 11:35:59;;;;;;;2.47;2.27;;;4.80;89.50;;;;;;5094948;28;20514;-81
2022/12/11 11:38:39;;;;;;;1.97;1.87;;;4.90;88.70;;;;;;5096341;28;20166;-81
2022/12/11 11:41:22;;;;;;;1.93;1.83;;;4.90;89.20;;;;;;5095986;28;20190;-81
2022/12/11 11:43:52;;;;;;;1.87;1.77;;;5.00;89.80;;;;;;5097976;28;20219;-82
2022/12/11 11:46:43;;;;;;;2.07;1.97;;;5.00;89.80;;;;;;5096075;28;20169;-81
2022/12/11 11:49:11;;;;;;;2.00;1.90;;;5.10;89.20;;;;;;5088537;28;20198;-78
2022/12/11 11:52:00;;;;;;;2.20;2.10;;;5.00;88.70;;;;;;5095718;28;20178;-80
2022/12/11 11:54:53;;;;;;;2.13;2.03;;;4.90;89.10;;;;;;5095611;28;20166;-81
2022/12/11 11:57:19;;;;;;;1.90;1.80;;;5.00;89.30;;;;;;5096492;28;20218;-80
2022/12/11 11:59:55;;;;;;;2.40;2.20;;;5.00;88.00;;;;;;5094389;28;20182;-81
2022/12/11 12:02:21;;;;;;;1.90;1.80;;;5.00;88.50;;;;;;5096156;28;20184;-81
2022/12/11 12:04:50;;;;;;;2.17;2.00;;;4.90;88.90;;;;;;5094493;28;20269;-81
2022/12/11 12:08:15;;;;;;;1.93;1.70;;;5.00;87.90;;;;;;5094392;28;20181;-82
2022/12/11 12:11:07;;;;;;;1.90;1.80;;;5.00;87.70;;;;;;5032605;28;20172;-81
2022/12/11 12:14:00;;;;;;;1.80;1.70;;;5.00;88.50;;;;;;5030126;28;20203;-77
2022/12/11 12:17:05;;;;;;;2.00;1.90;;;4.90;88.30;;;;;;5091832;28;20526;-78
2022/12/11 12:19:51;;;;;;;2.30;2.17;;;4.80;87.70;;;;;;5093892;28;20178;-78
2022/12/11 12:22:17;;;;;;;1.70;1.60;;;4.80;87.70;;;;;;5097351;28;20197;-78
2022/12/11 12:24:52;;;;;;;2.30;2.20;;;4.80;86.80;;;;;;5093473;28;20250;-80
2022/12/11 12:28:06;;;;;;;2.67;2.03;;;4.80;87.20;;;;;;5095270;28;20202;-79
2022/12/11 12:30:56;;;;;;;1.90;1.80;;;4.60;86.40;;;;;;5089133;28;20186;-77
2022/12/11 12:33:28;;;;;;;1.83;1.73;;;4.60;86.70;;;;;;5094872;28;20174;-78
2022/12/11 12:36:26;;;;;;;2.80;2.60;;;4.60;86.90;;;;;;5094867;28;20169;-80
2022/12/11 12:38:59;;;;;;;1.97;1.87;;;4.60;86.00;;;;;;5093274;28;20206;-80
2022/12/11 12:41:57;;;;;;;1.80;1.70;;;4.50;87.30;;;;;;5094679;28;20150;-82
2022/12/11 12:44:25;;;;;;;1.70;1.70;;;4.50;86.60;;;;;;5076068;28;20214;-81
2022/12/11 12:47:09;;;;;;;2.00;1.90;;;4.40;86.60;;;;;;5094638;28;20174;-81
2022/12/11 12:49:47;;;;;;;2.07;1.97;;;4.40;86.80;;;;;;5094695;28;20732;-83
2022/12/11 12:52:32;;;;;;;2.17;1.87;;;4.50;86.80;;;;;;5094473;28;20237;-78
2022/12/11 12:55:23;;;;;;;2.27;1.77;;;4.50;88.10;;;;;;5094451;28;20166;-80
2022/12/11 12:57:56;;;;;;;1.87;1.77;;;4.50;85.90;;;;;;5094944;28;20217;-79
2022/12/11 13:00:37;;;;;;;2.07;1.97;;;4.40;86.20;;;;;;5094947;28;20206;-82
2022/12/11 13:03:28;;;;;;;2.03;1.93;;;4.40;86.70;;;;;;5096000;28;20209;-82
2022/12/11 13:05:58;;;;;;;2.03;1.83;;;4.30;86.00;;;;;;5095602;28;20169;-80
2022/12/11 13:08:49;;;;;;;2.17;2.07;;;4.30;87.10;;;;;;5097504;28;20174;-81
2022/12/11 13:11:18;;;;;;;1.80;1.70;;;4.40;85.60;;;;;;5096040;28;20162;-81
2022/12/11 13:14:01;;;;;;;1.80;1.70;;;4.30;86.80;;;;;;5095136;28;20198;-81
2022/12/11 13:16:39;;;;;;;1.73;1.63;;;4.30;85.30;;;;;;5092938;28;20177;-82
2022/12/11 13:19:24;;;;;;;1.97;1.87;;;4.20;86.00;;;;;;5093916;28;20200;-83
2022/12/11 13:22:13;;;;;;;1.70;1.60;;;4.10;84.20;;;;;;5093703;28;20170;-80
2022/12/11 13:24:47;;;;;;;2.00;1.90;;;4.00;85.20;;;;;;5093664;28;20554;-80
2022/12/11 13:27:40;;;;;;;1.90;1.80;;;4.10;85.10;;;;;;5093854;28;20170;-81
2022/12/11 13:30:18;;;;;;;1.80;1.70;;;4.10;84.40;;;;;;5093644;28;20179;-82
2022/12/11 13:33:02;;;;;;;2.00;1.90;;;4.10;85.30;;;;;;5097492;28;20528;-81